createdAt,value
2023-03-20T00:00:00.316Z,99.90
2023-03-20T00:02:29.385Z,99.90
2023-03-20T00:04:58.429Z,99.90
2023-03-20T00:07:27.809Z,99.90
2023-03-20T00:09:58.075Z,99.90
2023-03-20T00:12:28.604Z,99.90
2023-03-20T00:14:57.765Z,99.90
2023-03-20T00:17:26.674Z,99.90
2023-03-20T00:19:55.568Z,99.90
2023-03-20T00:22:24.502Z,99.90
2023-03-20T00:24:54.593Z,99.90
2023-03-20T00:27:23.605Z,99.90
2023-03-20T00:29:53.969Z,99.90
2023-03-20T00:32:22.914Z,99.90
2023-03-20T00:34:51.830Z,99.90
2023-03-20T00:37:20.858Z,99.90
2023-03-20T00:39:49.780Z,99.90
2023-03-20T00:42:22.711Z,99.90
2023-03-20T00:44:59.949Z,99.90
2023-03-20T00:47:30.750Z,99.90
2023-03-20T00:49:59.946Z,99.90
2023-03-20T00:52:29.533Z,99.90
2023-03-20T00:54:58.483Z,99.90
2023-03-20T00:57:31.183Z,99.90
2023-03-20T01:00:05.648Z,99.90
2023-03-20T01:02:55.090Z,99.90
2023-03-20T01:05:27.626Z,99.90
2023-03-20T01:07:57.234Z,99.90
2023-03-20T01:10:31.437Z,99.90
2023-03-20T01:13:03.118Z,99.90
2023-03-20T01:15:35.698Z,99.90
2023-03-20T01:18:05.241Z,99.90
2023-03-20T01:20:34.187Z,99.90
2023-03-20T01:23:03.013Z,99.90
2023-03-20T01:25:32.144Z,99.90
2023-03-20T01:28:01.347Z,99.90
2023-03-20T01:30:32.738Z,99.90
2023-03-20T01:33:08.427Z,99.90
2023-03-20T01:35:37.784Z,99.90
2023-03-20T01:38:15.853Z,99.90
2023-03-20T01:40:55.737Z,99.90
2023-03-20T01:43:27.323Z,99.90
2023-03-20T01:46:02.962Z,99.90
2023-03-20T01:49:08.164Z,99.90
2023-03-20T01:51:39.486Z,99.90
2023-03-20T01:54:16.525Z,99.90
2023-03-20T01:57:12.658Z,99.90
2023-03-20T01:59:46.507Z,99.90
2023-03-20T02:02:18.116Z,99.90
2023-03-20T02:04:51.917Z,99.90
2023-03-20T02:07:24.799Z,99.90
2023-03-20T02:10:04.227Z,99.90
2023-03-20T02:12:50.546Z,99.90
2023-03-20T02:15:29.188Z,99.90
2023-03-20T02:18:13.083Z,99.90
2023-03-20T02:21:01.826Z,99.90
2023-03-20T02:24:06.519Z,99.90
2023-03-20T02:26:51.232Z,99.90
2023-03-20T02:30:03.926Z,99.90
2023-03-20T02:33:09.039Z,99.90
2023-03-20T02:36:22.486Z,99.90
2023-03-20T02:39:12.272Z,99.90
2023-03-20T02:41:46.128Z,99.90
2023-03-20T02:44:21.960Z,99.90
2023-03-20T02:47:02.377Z,99.90
2023-03-20T02:49:56.158Z,99.90
2023-03-20T02:52:35.010Z,99.90
2023-03-20T02:55:33.165Z,99.90
2023-03-20T02:58:17.365Z,99.90
2023-03-20T03:00:52.049Z,99.90
2023-03-20T03:03:25.865Z,99.90
2023-03-20T03:05:59.415Z,99.90
2023-03-20T03:08:33.973Z,99.90
2023-03-20T03:11:06.833Z,99.90
2023-03-20T03:13:40.830Z,99.90
2023-03-20T03:16:15.932Z,99.90
2023-03-20T03:18:48.130Z,99.90
2023-03-20T03:21:18.929Z,99.90
2023-03-20T03:23:49.543Z,99.90
2023-03-20T03:26:25.774Z,99.90
2023-03-20T03:29:01.863Z,99.90
2023-03-20T03:31:33.085Z,99.90
2023-03-20T03:34:03.544Z,99.90
2023-03-20T03:36:43.219Z,99.90
2023-03-20T03:39:20.716Z,99.90
2023-03-20T03:41:54.654Z,99.90
2023-03-20T03:44:29.573Z,99.90
2023-03-20T03:47:03.776Z,99.90
2023-03-20T03:49:35.923Z,99.90
2023-03-20T03:52:10.164Z,99.90
2023-03-20T03:54:44.716Z,99.90
2023-03-20T03:57:38.357Z,99.90
2023-03-20T04:00:13.074Z,99.90
2023-03-20T04:02:44.107Z,99.90
2023-03-20T04:05:14.993Z,99.90
2023-03-20T04:07:46.695Z,99.90
2023-03-20T04:10:16.484Z,99.90
2023-03-20T04:12:47.274Z,99.90
2023-03-20T04:15:18.709Z,99.90
2023-03-20T04:17:48.013Z,99.90
2023-03-20T04:20:18.626Z,99.90
2023-03-20T04:22:49.089Z,99.90
2023-03-20T04:25:20.926Z,99.90
2023-03-20T04:27:52.739Z,99.90
2023-03-20T04:30:40.079Z,99.90
2023-03-20T04:33:19.278Z,99.90
2023-03-20T04:36:04.748Z,99.90
2023-03-20T04:38:35.203Z,99.90
2023-03-20T04:41:04.993Z,99.90
2023-03-20T04:43:35.396Z,99.90
2023-03-20T04:46:04.547Z,99.90
2023-03-20T04:48:33.522Z,99.90
2023-03-20T04:51:03.006Z,99.90
2023-03-20T04:53:44.065Z,99.90
2023-03-20T04:56:13.191Z,99.90
2023-03-20T04:58:43.635Z,99.90
2023-03-20T05:01:13.308Z,99.90
2023-03-20T05:03:42.594Z,99.90
2023-03-20T05:06:11.998Z,99.90
2023-03-20T05:08:44.224Z,99.90
2023-03-20T05:11:13.368Z,99.90
2023-03-20T05:14:10.255Z,99.90
2023-03-20T05:16:54.089Z,99.90
2023-03-20T05:19:35.784Z,99.90
2023-03-20T05:22:20.040Z,99.90
2023-03-20T05:25:08.346Z,99.90
2023-03-20T05:27:43.184Z,99.90
2023-03-20T05:30:33.677Z,99.90
2023-03-20T05:33:25.727Z,99.90
2023-03-20T05:36:14.970Z,99.90
2023-03-20T05:39:02.324Z,99.90
2023-03-20T05:41:54.308Z,99.90
2023-03-20T05:44:42.797Z,99.90
2023-03-20T05:47:36.241Z,99.90
2023-03-20T05:50:23.616Z,99.90
2023-03-20T05:53:01.924Z,99.90
2023-03-20T05:55:44.899Z,99.90
2023-03-20T05:58:45.635Z,99.90
2023-03-20T06:01:37.609Z,99.90
2023-03-20T06:04:29.900Z,99.90
2023-03-20T06:07:20.160Z,99.90
2023-03-20T06:09:58.492Z,99.90
2023-03-20T06:12:28.632Z,99.90
2023-03-20T06:15:16.042Z,99.90
2023-03-20T06:17:52.187Z,99.90
2023-03-20T06:20:23.208Z,99.90
2023-03-20T06:22:52.322Z,99.90
2023-03-20T06:25:21.863Z,99.90
2023-03-20T06:27:51.800Z,99.90
2023-03-20T06:30:21.693Z,99.90
2023-03-20T06:32:52.196Z,99.90
2023-03-20T06:35:24.263Z,99.90
2023-03-20T06:37:53.580Z,99.90
2023-03-20T06:40:27.537Z,99.90
2023-03-20T06:43:01.981Z,99.90
2023-03-20T06:45:41.908Z,99.90
2023-03-20T06:48:22.320Z,99.90
2023-03-20T06:51:05.591Z,99.90
2023-03-20T06:53:44.415Z,99.90
2023-03-20T06:56:23.137Z,99.90
2023-03-20T06:58:54.212Z,99.90
2023-03-20T07:01:23.927Z,99.90
2023-03-20T07:03:53.598Z,99.90
2023-03-20T07:06:29.274Z,99.90
2023-03-20T07:09:10.144Z,99.90
2023-03-20T07:11:40.697Z,99.90
2023-03-20T07:14:13.708Z,99.90
2023-03-20T07:17:05.295Z,99.90
2023-03-20T07:19:37.916Z,99.90
2023-03-20T07:22:13.545Z,99.40
2023-03-20T07:24:43.532Z,99.10
2023-03-20T07:27:32.482Z,99.60
2023-03-20T07:30:01.475Z,97.80
2023-03-20T07:32:31.190Z,95.90
2023-03-20T07:35:00.481Z,95.10
2023-03-20T07:37:31.604Z,96.30
2023-03-20T07:40:09.885Z,96.10
2023-03-20T07:42:57.558Z,96.10
2023-03-20T07:45:45.354Z,94.20
2023-03-20T07:48:14.270Z,93.30
2023-03-20T07:50:43.236Z,93.80
2023-03-20T07:53:13.755Z,93.00
2023-03-20T07:55:42.809Z,91.70
2023-03-20T07:58:12.666Z,91.20
2023-03-20T08:00:42.279Z,90.70
2023-03-20T08:03:11.576Z,89.90
2023-03-20T08:05:42.087Z,90.50
2023-03-20T08:08:14.681Z,90.60
2023-03-20T08:10:43.873Z,91.50
2023-03-20T08:13:12.746Z,92.60
2023-03-20T08:15:46.781Z,91.90
2023-03-20T08:18:15.762Z,92.00
2023-03-20T08:20:44.714Z,92.60
2023-03-20T08:23:15.077Z,90.90
2023-03-20T08:25:48.103Z,88.20
2023-03-20T08:28:17.798Z,85.50
2023-03-20T08:30:47.502Z,82.80
2023-03-20T08:33:18.577Z,81.00
2023-03-20T08:35:57.422Z,80.00
2023-03-20T08:38:28.057Z,80.80
2023-03-20T08:40:57.159Z,81.50
2023-03-20T08:43:26.185Z,81.50
2023-03-20T08:45:55.683Z,82.50
2023-03-20T08:48:26.621Z,86.40
2023-03-20T08:50:56.318Z,88.90
2023-03-20T08:53:27.474Z,89.10
2023-03-20T08:55:56.824Z,85.00
2023-03-20T08:58:25.885Z,83.90
2023-03-20T09:00:54.910Z,82.10
2023-03-20T09:03:24.000Z,80.30
2023-03-20T09:05:53.610Z,79.10
2023-03-20T09:08:22.565Z,78.30
2023-03-20T09:10:53.649Z,78.30
2023-03-20T09:13:27.405Z,79.50
2023-03-20T09:34:33.840Z,72.60
2023-03-20T09:37:03.516Z,74.80
2023-03-20T09:39:32.449Z,75.50
2023-03-20T09:42:12.199Z,76.40
2023-03-20T09:44:51.303Z,76.40
2023-03-20T09:47:29.639Z,76.10
2023-03-20T09:50:22.595Z,74.30
2023-03-20T09:52:59.336Z,73.60
2023-03-20T09:55:35.685Z,73.40
2023-03-20T09:58:11.432Z,73.30
2023-03-20T10:00:43.852Z,73.40
2023-03-20T10:03:19.836Z,72.80
2023-03-20T10:05:56.220Z,72.20
2023-03-20T10:08:32.020Z,73.00
2023-03-20T10:11:40.718Z,72.00
2023-03-20T10:14:18.837Z,72.00
2023-03-20T10:16:59.467Z,73.30
2023-03-20T10:19:33.099Z,72.90
2023-03-20T10:22:16.038Z,71.70
2023-03-20T10:24:52.732Z,72.90
2023-03-20T10:27:47.795Z,72.90
2023-03-20T10:30:45.990Z,71.90
2023-03-20T10:33:34.102Z,72.00
2023-03-20T10:36:15.326Z,71.30
2023-03-20T10:38:51.368Z,71.20
2023-03-20T10:41:24.283Z,70.20
2023-03-20T10:43:58.324Z,69.40
2023-03-20T10:46:31.869Z,70.30
2023-03-20T10:49:05.654Z,72.20
2023-03-20T10:51:41.584Z,70.80
2023-03-20T10:54:22.680Z,69.50
2023-03-20T10:57:17.089Z,68.00
2023-03-20T10:59:50.216Z,67.10
2023-03-20T11:02:21.377Z,66.40
2023-03-20T11:04:50.424Z,66.10
2023-03-20T11:07:26.433Z,66.30
2023-03-20T11:10:18.292Z,64.50
2023-03-20T11:12:49.816Z,61.60
2023-03-20T11:15:27.119Z,60.10
2023-03-20T11:17:58.417Z,59.50
2023-03-20T11:20:29.583Z,58.20
2023-03-20T11:23:04.018Z,58.10
2023-03-20T11:25:36.939Z,57.60
2023-03-20T11:28:36.838Z,57.60
2023-03-20T11:31:08.858Z,58.30
2023-03-20T11:33:40.673Z,57.10
2023-03-20T11:36:21.674Z,57.00
2023-03-20T11:38:52.416Z,55.80
2023-03-20T11:41:27.925Z,56.50
2023-03-20T11:43:57.186Z,56.50
2023-03-20T11:46:27.158Z,55.90
2023-03-20T11:49:19.126Z,54.70
2023-03-20T11:51:49.802Z,55.30
2023-03-20T11:54:22.852Z,54.60
2023-03-20T11:57:33.632Z,54.50
2023-03-20T12:00:24.291Z,54.10
2023-03-20T12:02:53.351Z,53.90
2023-03-20T12:05:41.031Z,53.40
2023-03-20T12:08:17.567Z,53.10
2023-03-20T12:10:52.168Z,53.30
2023-03-20T12:13:26.466Z,54.10
2023-03-20T12:15:59.821Z,54.50
2023-03-20T12:18:36.196Z,54.80
2023-03-20T12:21:11.325Z,55.80
2023-03-20T12:23:45.281Z,56.20
2023-03-20T12:26:16.363Z,56.60
2023-03-20T12:28:53.591Z,56.30
2023-03-20T12:31:28.225Z,55.70
2023-03-20T12:34:01.808Z,56.50
2023-03-20T12:36:34.620Z,57.10
2023-03-20T12:39:06.054Z,56.40
2023-03-20T12:41:43.513Z,56.60
2023-03-20T12:44:31.254Z,57.70
2023-03-20T12:47:11.078Z,58.10
2023-03-20T12:49:52.190Z,57.90
2023-03-20T12:52:29.666Z,57.80
2023-03-20T12:55:26.026Z,57.70
2023-03-20T12:58:07.596Z,58.30
2023-03-20T13:00:42.713Z,58.80
2023-03-20T13:03:33.957Z,59.20
2023-03-20T13:06:10.475Z,58.70
2023-03-20T13:09:08.583Z,58.90
2023-03-20T13:11:46.149Z,59.60
2023-03-20T13:14:21.301Z,60.70
2023-03-20T13:16:56.975Z,61.00
2023-03-20T13:19:35.734Z,61.50
2023-03-20T13:22:09.382Z,62.80
2023-03-20T13:24:42.900Z,63.30
2023-03-20T13:27:33.666Z,62.50
2023-03-20T13:30:06.946Z,62.90
2023-03-20T13:32:51.007Z,63.30
2023-03-20T13:35:32.239Z,64.50
2023-03-20T13:38:08.293Z,64.90
2023-03-20T13:40:43.703Z,65.20
2023-03-20T13:43:25.694Z,65.30
2023-03-20T13:46:03.300Z,65.70
2023-03-20T13:48:37.995Z,65.10
2023-03-20T13:51:15.552Z,65.10
2023-03-20T13:53:54.403Z,65.30
2023-03-20T13:56:34.864Z,65.30
2023-03-20T13:59:20.137Z,65.60
2023-03-20T14:01:58.753Z,66.20
2023-03-20T14:04:30.728Z,66.20
2023-03-20T14:07:00.736Z,66.20
2023-03-20T14:09:33.980Z,66.40
2023-03-20T14:12:05.757Z,66.50
2023-03-20T14:14:43.120Z,66.70
2023-03-20T14:17:19.340Z,67.70
2023-03-20T14:19:51.748Z,67.10
2023-03-20T14:22:23.577Z,67.00
2023-03-20T14:24:59.239Z,67.30
2023-03-20T14:27:43.388Z,67.60
2023-03-20T14:30:45.128Z,67.80
2023-03-20T14:33:32.753Z,68.10
2023-03-20T14:36:22.621Z,68.20
2023-03-20T14:39:15.692Z,68.70
2023-03-20T14:42:07.268Z,68.70
2023-03-20T14:44:53.241Z,68.40
2023-03-20T14:47:33.185Z,68.70
2023-03-20T14:50:10.851Z,69.00
2023-03-20T14:53:01.008Z,69.50
2023-03-20T14:55:33.563Z,69.80
2023-03-20T14:58:07.864Z,69.90
2023-03-20T15:00:46.193Z,70.20
2023-03-20T15:03:18.224Z,70.70
2023-03-20T15:05:48.610Z,70.90
2023-03-20T15:08:25.713Z,71.20
2023-03-20T15:10:58.212Z,71.30
2023-03-20T15:13:29.508Z,71.50
2023-03-20T15:16:05.069Z,71.60
2023-03-20T15:18:39.778Z,71.80
2023-03-20T15:21:15.226Z,72.20
2023-03-20T15:23:47.945Z,72.40
2023-03-20T15:26:19.701Z,72.90
2023-03-20T15:28:49.573Z,73.00
2023-03-20T15:31:24.781Z,73.30
2023-03-20T15:33:53.971Z,73.50
2023-03-20T15:36:27.004Z,73.60
2023-03-20T15:39:07.259Z,74.10
2023-03-20T15:41:39.505Z,74.50
2023-03-20T15:44:29.178Z,74.80
2023-03-20T15:47:08.854Z,75.00
2023-03-20T15:49:41.271Z,75.40
2023-03-20T15:52:21.735Z,75.70
2023-03-20T15:55:20.091Z,76.30
2023-03-20T15:57:50.643Z,76.70
2023-03-20T16:00:43.378Z,76.80
2023-03-20T16:03:17.283Z,77.10
2023-03-20T16:05:48.137Z,77.60
2023-03-20T16:08:23.764Z,77.90
2023-03-20T16:10:57.981Z,78.30
2023-03-20T16:13:28.137Z,78.90
2023-03-20T16:15:57.338Z,79.10
2023-03-20T16:18:26.631Z,79.40
2023-03-20T16:21:00.424Z,80.00
2023-03-20T16:23:51.991Z,80.30
2023-03-20T16:26:24.178Z,80.60
2023-03-20T16:28:56.464Z,81.00
2023-03-20T16:31:29.897Z,81.50
2023-03-20T16:34:01.337Z,82.00
2023-03-20T16:36:32.714Z,82.40
2023-03-20T16:39:09.061Z,82.70
2023-03-20T16:41:42.222Z,83.10
2023-03-20T16:44:17.161Z,83.40
2023-03-20T16:46:59.050Z,84.00
2023-03-20T16:50:07.111Z,84.40
2023-03-20T16:52:39.787Z,84.70
2023-03-20T16:55:16.851Z,84.70
2023-03-20T16:58:03.080Z,85.10
2023-03-20T17:00:34.499Z,85.20
2023-03-20T17:03:18.772Z,85.50
2023-03-20T17:05:54.853Z,85.90
2023-03-20T17:08:36.017Z,86.00
2023-03-20T17:11:11.917Z,86.40
2023-03-20T17:13:43.533Z,86.90
2023-03-20T17:16:16.239Z,87.40
2023-03-20T17:18:47.907Z,87.70
2023-03-20T17:21:20.878Z,88.20
2023-03-20T17:23:50.593Z,88.40
2023-03-20T17:26:19.395Z,88.70
2023-03-20T17:28:49.828Z,88.90
2023-03-20T17:31:20.042Z,89.20
2023-03-20T17:33:49.194Z,89.50
2023-03-20T17:36:22.103Z,89.60
2023-03-20T17:38:51.168Z,89.70
2023-03-20T17:41:21.816Z,89.90
2023-03-20T17:43:52.798Z,90.10
2023-03-20T17:46:22.899Z,90.30
2023-03-20T17:48:52.993Z,90.50
2023-03-20T17:51:21.913Z,90.60
2023-03-20T17:53:55.351Z,90.80
2023-03-20T17:56:24.372Z,90.90
2023-03-20T17:58:55.176Z,91.10
2023-03-20T18:01:24.249Z,91.30
2023-03-20T18:03:53.251Z,91.40
2023-03-20T18:06:25.824Z,91.50
2023-03-20T18:08:55.076Z,91.90
2023-03-20T18:11:24.524Z,91.70
2023-03-20T18:13:54.942Z,91.70
2023-03-20T18:16:42.529Z,91.90
2023-03-20T18:19:22.489Z,92.00
2023-03-20T18:21:51.430Z,92.20
2023-03-20T18:24:20.465Z,92.30
2023-03-20T18:26:49.585Z,92.50
2023-03-20T18:29:21.306Z,92.70
2023-03-20T18:31:50.626Z,92.90
2023-03-20T18:34:19.864Z,93.10
2023-03-20T18:36:49.268Z,93.40
2023-03-20T18:39:19.640Z,93.50
2023-03-20T18:41:50.984Z,93.70
2023-03-20T18:44:22.053Z,93.90
2023-03-20T18:46:51.844Z,94.10
2023-03-20T18:49:22.380Z,94.30
2023-03-20T18:51:53.442Z,94.50
2023-03-20T18:54:22.583Z,94.60
2023-03-20T18:56:52.145Z,94.80
2023-03-20T18:59:27.118Z,95.00
2023-03-20T19:01:57.406Z,95.20
2023-03-20T19:04:27.302Z,95.40
2023-03-20T19:06:56.409Z,95.60
2023-03-20T19:09:25.220Z,95.80
2023-03-20T19:11:54.086Z,96.10
2023-03-20T19:14:25.982Z,96.30
2023-03-20T19:16:54.896Z,96.50
2023-03-20T19:19:23.749Z,96.80
2023-03-20T19:21:52.607Z,97.00
2023-03-20T19:24:21.868Z,97.30
2023-03-20T19:26:50.929Z,97.60
2023-03-20T19:29:19.726Z,97.80
2023-03-20T19:31:50.548Z,98.00
2023-03-20T19:35:00.910Z,98.20
2023-03-20T19:37:13.620Z,98.30
2023-03-20T19:39:43.232Z,98.40
2023-03-20T19:42:45.844Z,98.40
2023-03-20T19:45:01.805Z,98.60
2023-03-20T19:47:32.193Z,98.90
2023-03-20T19:50:01.144Z,99.30
2023-03-20T19:52:34.235Z,99.60
2023-03-20T19:55:04.176Z,99.90
2023-03-20T19:57:33.121Z,99.90
2023-03-20T20:00:48.685Z,99.90
2023-03-20T20:02:52.874Z,99.90
2023-03-20T20:05:28.702Z,99.90
2023-03-20T20:10:48.740Z,99.90
2023-03-20T20:13:20.631Z,99.90
2023-03-20T20:15:51.156Z,99.90
2023-03-20T20:18:23.417Z,99.90
2023-03-20T20:21:42.555Z,99.90
2023-03-20T20:23:42.845Z,99.90
2023-03-20T20:26:11.790Z,99.90
2023-03-20T20:28:40.856Z,99.90
2023-03-20T20:31:09.809Z,99.90
2023-03-20T20:33:41.119Z,99.90
2023-03-20T20:36:57.647Z,99.90
2023-03-20T20:39:01.263Z,99.90
2023-03-20T20:41:30.648Z,99.90
2023-03-20T20:44:17.195Z,99.90
2023-03-20T20:46:47.648Z,99.90
2023-03-20T20:49:19.931Z,99.90
2023-03-20T20:51:49.697Z,99.90
2023-03-20T20:54:18.700Z,99.90
2023-03-20T20:56:47.623Z,99.90
2023-03-20T20:59:16.482Z,99.90
2023-03-20T21:01:46.054Z,99.90
2023-03-20T21:04:16.531Z,99.90
2023-03-20T21:09:35.055Z,99.90
2023-03-20T21:12:04.183Z,99.90
2023-03-20T21:14:33.255Z,99.90
2023-03-20T21:17:03.258Z,99.90
2023-03-20T21:19:36.133Z,99.90
2023-03-20T21:22:05.194Z,99.90
2023-03-20T21:24:35.286Z,99.90
2023-03-20T21:27:05.999Z,99.90
2023-03-20T21:29:34.961Z,99.90
2023-03-20T21:32:04.044Z,99.90
2023-03-20T21:34:34.446Z,99.90
2023-03-20T21:37:49.561Z,99.90
2023-03-20T21:39:53.402Z,99.90
2023-03-20T21:42:23.011Z,99.90
2023-03-20T21:45:39.025Z,99.90
2023-03-20T21:51:09.753Z,99.90
2023-03-20T21:56:56.670Z,99.90
2023-03-20T22:02:08.305Z,99.90
2023-03-20T22:07:58.275Z,99.90
2023-03-20T22:14:19.112Z,99.90
2023-03-20T22:17:13.366Z,99.90
2023-03-20T22:19:56.238Z,99.90
2023-03-20T22:22:48.627Z,99.90
2023-03-20T22:25:25.828Z,99.90
2023-03-20T22:28:07.121Z,99.90
2023-03-20T22:31:18.963Z,99.90
2023-03-20T22:34:16.160Z,99.90
2023-03-20T22:36:46.865Z,99.90
2023-03-20T22:42:24.256Z,99.90
2023-03-20T22:47:36.676Z,99.90
2023-03-20T22:50:06.379Z,99.90
2023-03-20T22:52:55.745Z,99.90
2023-03-20T22:55:26.296Z,99.90
2023-03-20T22:58:06.739Z,99.90
2023-03-20T23:00:36.864Z,99.90
2023-03-20T23:03:19.626Z,99.90
2023-03-20T23:05:55.774Z,99.90
2023-03-20T23:08:25.091Z,99.90
2023-03-20T23:10:53.887Z,99.90
2023-03-20T23:13:24.251Z,99.90
2023-03-20T23:15:53.243Z,99.90
2023-03-20T23:18:22.063Z,99.90
2023-03-20T23:20:51.040Z,99.90
2023-03-20T23:23:20.041Z,99.90
2023-03-20T23:25:48.891Z,99.90
2023-03-20T23:28:17.802Z,99.90
2023-03-20T23:30:59.875Z,99.90
2023-03-20T23:33:37.182Z,99.90
2023-03-20T23:36:18.620Z,99.90
2023-03-20T23:38:51.803Z,99.90
2023-03-20T23:41:43.617Z,99.90
2023-03-20T23:44:13.840Z,99.90
2023-03-20T23:46:51.169Z,99.90
2023-03-20T23:49:21.270Z,99.90
2023-03-20T23:51:50.138Z,99.90
2023-03-20T23:54:19.372Z,99.90
2023-03-20T23:56:48.966Z,99.90
2023-03-20T23:59:22.110Z,99.90
